Glade Spring, VA

7:01 AM EST on February 10, 2016 (GMT -0500)
Friendship | | Change Station
CLOSE
Current Station
Personal Weather Station
Location: Glade Spring, VA
Elevation: 2015 ft
Nearby Weather Stations
Active Advisory: Winter Weather Advisory Active Notice: Local Storm Report

Elev 2015 ft 36.73 °N, 81.74 °W | Updated 15 seconds ago

Snow
Snow
16.7 °F
Feels Like 17 °F
N
2.0
Wind Variable Wind from WSW
Gusts 7.0 mph

Today
High -- | Low -- °F
--% Chance of Precip.
Yesterday
High -- | Low -- °F
Precip. -- in
Pressure 29.88 in
Visibility 10.0 miles
Clouds Overcast 2300 ft
Windchill 17 °F
Dew Point 12 °F
Humidity 81%
Rainfall 0.00 in
Snow Depth Not available.
7:21 AM 6:01 PM
Waxing Crescent, 5% visible
METAR KVJI 101155Z AUTO 27010KT 10SM -SN OVC023 M07/M12 A2988 RMK AO2 T10711123 11055 21071
Pressure 29.88 in
Visibility 10.0 miles
Clouds Overcast 2300 ft
Windchill 17 °F
Dew Point 12 °F
Humidity 81%
Rainfall 0.00 in
Snow Depth Not available.
7:21 AM 6:01 PM
Waxing Crescent, 5% visible
METAR KVJI 101155Z AUTO 27010KT 10SM -SN OVC023 M07/M12 A2988 RMK AO2 T10711123 11055 21071

10-Day Weather Forecast

Almanac

Astronomy

Feb. 10, 2016 Rise Set
Actual Time
Civil Twilight
Nautical Twilight
Astronomical Twilight
Moon
Length of Visible Light
Length of Day
Tomorrow will be .
, % of the Moon is Illuminated

Today's Extremes

State Highs State Lows

Community

WunderPhotos

Upload Photos

1,891,834 photos uploaded!

WunderBlog® & News

Nearby

Air Quality

  Air Quality AQ Index Pollutant
Not available.

Snow Depth

Station Depth Elevation

Earthquake Activity

City Distance Mag. Time & Date
Minimum magnitude displayed is 2.5.

Coastal Water Temperatures

Place Temperature

Stations

Nearby Weather Stations

Station Location Temp. Windchill Dew Point Humidity Wind Precip. Elev Updated Type
                   

Watches & Warnings

Winter Weather Advisory
Issued: 6:20 AM EST Feb. 10, 2016 – National Weather Service

... Winter Weather Advisory remains in effect until 7 PM EST this
evening...

* event... scattered snow showers will slowly diminish today with
flurries this evening. Most locations will only see a dusting of
additional snowfall... but the heavier snow showers across the
lower elevation could produce up to an inch. Across the
higher... additional snow accumulations up to 2 inches possible.
The heavier snow showers will reduce visibility... so drive
safely.

* Timing... snow showers slowly diminishing today.

* Impacts... the snow could cause hazardous driving conditions...
especially on secondary roads.

Precautionary/preparedness actions...

A Winter Weather Advisory for snow means that periods of snow are
expected or occurring... but accumulations are expected to be
light. Driving and walking may be difficult on untreated
roadways and sidewalks. Be prepared for snow covered roads and
limited visibilities. If you must travel... slow down and allow
extra time to reach your destination.